DLH346 EDDM-HAAB
Flight info
| Callsign | DLH346 |
|---|---|
| Flight time | N/A |
| Altitude | 37000 |
| Route | VAVOR3E/08R VAVOR M867 RADIZ DCT VEKEN DCT BUSET DCT ZDA DCT AIOSA DCT NOSTO DCT SALUN N705 BOPIX N710 TAKRI P751 UMINI/N0478F390 P751 PSD/N0482F380 DCT KSL DCT ALRAP/N0478F390 UT124 AMUDO AMUDO2A |
| Aircraft | A346/H-SDE2E3FGHIJ3J4J5M1RWXY/LB1D1 |
Departure
| Time | 2026-05-01 09:33 |
|---|---|
| Airport | Munich Airport (EDDM) |
Arrival
| Time | N/A |
|---|---|
| Airport | Addis Ababa Bole International Airport (HAAB) |
| Time | Latitude | Longitude | Altitude | Speed | Heading |
|---|---|---|---|---|---|
| 2026-05-01 08:58 | 48.35245 | 11.80041 | 1471 ft | 0 kts | 263° |
| 2026-05-01 09:16 | 48.35245 | 11.80043 | 1471 ft | 1 kts | 263° |
| 2026-05-01 09:16 | 48.35247 | 11.80065 | 1471 ft | 2 kts | 261° |
| 2026-05-01 09:16 | 48.35249 | 11.80087 | 1471 ft | 2 kts | 263° |
| 2026-05-01 09:17 | 48.35255 | 11.80126 | 1471 ft | 2 kts | 241° |
| 2026-05-01 09:17 | 48.35263 | 11.80143 | 1471 ft | 2 kts | 225° |
| 2026-05-01 09:17 | 48.35288 | 11.80166 | 1471 ft | 2 kts | 195° |
| 2026-05-01 09:18 | 48.35303 | 11.80170 | 1471 ft | 2 kts | 179° |
| 2026-05-01 09:18 | 48.35312 | 11.80169 | 1471 ft | 0 kts | 172° |
| 2026-05-01 09:22 | 48.35281 | 11.80173 | 1471 ft | 4 kts | 175° |
| 2026-05-01 09:22 | 48.35181 | 11.80186 | 1471 ft | 9 kts | 183° |
| 2026-05-01 09:23 | 48.35136 | 11.80128 | 1471 ft | 10 kts | 252° |
| 2026-05-01 09:23 | 48.35116 | 11.79891 | 1471 ft | 13 kts | 264° |
| 2026-05-01 09:24 | 48.35097 | 11.79638 | 1473 ft | 9 kts | 263° |
| 2026-05-01 09:24 | 48.35082 | 11.79552 | 1475 ft | 7 kts | 229° |
| 2026-05-01 09:24 | 48.34948 | 11.79540 | 1475 ft | 11 kts | 173° |
| 2026-05-01 09:25 | 48.34792 | 11.79495 | 1475 ft | 12 kts | 250° |
| 2026-05-01 09:25 | 48.34768 | 11.79246 | 1478 ft | 13 kts | 265° |
| 2026-05-01 09:26 | 48.34760 | 11.79109 | 1480 ft | 13 kts | 264° |
| 2026-05-01 09:26 | 48.34737 | 11.78834 | 1482 ft | 14 kts | 263° |
| 2026-05-01 09:26 | 48.34724 | 11.78677 | 1482 ft | 16 kts | 263° |
| 2026-05-01 09:27 | 48.34694 | 11.78293 | 1478 ft | 21 kts | 263° |
| 2026-05-01 09:27 | 48.34677 | 11.78070 | 1478 ft | 21 kts | 263° |
| 2026-05-01 09:27 | 48.34659 | 11.77840 | 1478 ft | 22 kts | 263° |
| 2026-05-01 09:28 | 48.34642 | 11.77610 | 1481 ft | 22 kts | 264° |
| 2026-05-01 09:28 | 48.34624 | 11.77374 | 1481 ft | 22 kts | 263° |
| 2026-05-01 09:28 | 48.34605 | 11.77137 | 1481 ft | 23 kts | 264° |
| 2026-05-01 09:28 | 48.34586 | 11.76890 | 1482 ft | 23 kts | 263° |
| 2026-05-01 09:29 | 48.34551 | 11.76422 | 1488 ft | 21 kts | 263° |
| 2026-05-01 09:29 | 48.34533 | 11.76200 | 1490 ft | 20 kts | 263° |
| 2026-05-01 09:30 | 48.34501 | 11.75770 | 1491 ft | 21 kts | 263° |
| 2026-05-01 09:30 | 48.34483 | 11.75546 | 1491 ft | 21 kts | 263° |
| 2026-05-01 09:30 | 48.34450 | 11.75135 | 1496 ft | 19 kts | 255° |
| 2026-05-01 09:31 | 48.34355 | 11.75065 | 1495 ft | 17 kts | 172° |
| 2026-05-01 09:31 | 48.34227 | 11.75094 | 1492 ft | 19 kts | 171° |
| 2026-05-01 09:31 | 48.34081 | 11.75146 | 1491 ft | 5 kts | 119° |
| 2026-05-01 09:32 | 48.34076 | 11.75212 | 1491 ft | 7 kts | 84° |
| 2026-05-01 09:32 | 48.34110 | 11.75653 | 1491 ft | 67 kts | 84° |
| 2026-05-01 09:32 | 48.34186 | 11.76634 | 1491 ft | 125 kts | 84° |
| 2026-05-01 09:33 | 48.34308 | 11.78149 | 1501 ft | 169 kts | 85° |
| 2026-05-01 09:33 | 48.34443 | 11.79892 | 2038 ft | 167 kts | 86° |
| 2026-05-01 09:33 | 48.34770 | 11.83437 | 3083 ft | 176 kts | 85° |
| 2026-05-01 09:34 | 48.34912 | 11.85298 | 3453 ft | 185 kts | 88° |
| 2026-05-01 09:34 | 48.35024 | 11.87280 | 3782 ft | 198 kts | 89° |
| 2026-05-01 09:34 | 48.35241 | 11.91596 | 4547 ft | 221 kts | 89° |
| 2026-05-01 09:35 | 48.35354 | 11.94009 | 4893 ft | 238 kts | 96° |
| 2026-05-01 09:35 | 48.33699 | 11.97947 | 6226 ft | 237 kts | 147° |
| 2026-05-01 09:35 | 48.32354 | 11.99369 | 6987 ft | 239 kts | 145° |
| 2026-05-01 09:36 | 48.31042 | 12.00819 | 7732 ft | 240 kts | 146° |
| 2026-05-01 09:36 | 48.29637 | 12.02202 | 8430 ft | 242 kts | 160° |
| 2026-05-01 09:36 | 48.27993 | 12.02766 | 8955 ft | 251 kts | 180° |
| 2026-05-01 09:36 | 48.26203 | 12.02684 | 9342 ft | 267 kts | 183° |
| 2026-05-01 09:37 | 48.24345 | 12.02554 | 10119 ft | 269 kts | 185° |
| 2026-05-01 09:37 | 48.20659 | 12.02196 | 11725 ft | 268 kts | 187° |
| 2026-05-01 09:37 | 48.18783 | 12.02065 | 12309 ft | 277 kts | 185° |
| 2026-05-01 09:38 | 48.14829 | 12.02117 | 13517 ft | 293 kts | 176° |
| 2026-05-01 09:38 | 48.12866 | 12.02847 | 14293 ft | 298 kts | 163° |
| 2026-05-01 09:38 | 48.10961 | 12.04097 | 14939 ft | 303 kts | 161° |
| 2026-05-01 09:39 | 48.07057 | 12.06738 | 16109 ft | 313 kts | 163° |
| 2026-05-01 09:39 | 48.05066 | 12.08019 | 16741 ft | 315 kts | 163° |
| 2026-05-01 09:39 | 48.03040 | 12.09311 | 17324 ft | 319 kts | 163° |
| 2026-05-01 09:40 | 48.01008 | 12.10605 | 17884 ft | 324 kts | 164° |
| 2026-05-01 09:40 | 47.96816 | 12.13280 | 18985 ft | 332 kts | 164° |
| 2026-05-01 09:40 | 47.94723 | 12.14688 | 19504 ft | 340 kts | 160° |
| 2026-05-01 09:41 | 47.92646 | 12.16525 | 20010 ft | 350 kts | 152° |
| 2026-05-01 09:41 | 47.88752 | 12.21190 | 20525 ft | 380 kts | 146° |
| 2026-05-01 09:41 | 47.86747 | 12.23748 | 20760 ft | 394 kts | 145° |